sensor_id;sensor_type;location;lat;lon;timestamp;pressure;altitude;pressure_sealevel;temperature;humidity
45813;BME280;31519;45.408;10.962;2022-12-18T00:00:07;101857.47;;;8.59;93.74
45813;BME280;31519;45.408;10.962;2022-12-18T00:03:00;101861.50;;;8.72;94.15
45813;BME280;31519;45.408;10.962;2022-12-18T00:05:29;101857.16;;;8.51;94.10
45813;BME280;31519;45.408;10.962;2022-12-18T00:07:57;101857.16;;;8.51;94.36
45813;BME280;31519;45.408;10.962;2022-12-18T00:10:27;101854.03;;;8.64;93.64
45813;BME280;31519;45.408;10.962;2022-12-18T00:12:56;101849.53;;;8.64;94.65
45813;BME280;31519;45.408;10.962;2022-12-18T00:15:24;101858.75;;;8.52;93.94
45813;BME280;31519;45.408;10.962;2022-12-18T00:17:52;101865.84;;;8.41;93.24
45813;BME280;31519;45.408;10.962;2022-12-18T00:20:20;101862.50;;;8.56;92.78
45813;BME280;31519;45.408;10.962;2022-12-18T00:22:53;101865.34;;;8.44;93.04
45813;BME280;31519;45.408;10.962;2022-12-18T00:25:23;101860.50;;;8.36;93.79
45813;BME280;31519;45.408;10.962;2022-12-18T00:27:51;101860.03;;;8.44;93.88
45813;BME280;31519;45.408;10.962;2022-12-18T00:30:19;101860.81;;;8.44;93.34
45813;BME280;31519;45.408;10.962;2022-12-18T00:32:48;101866.75;;;8.62;91.99
45813;BME280;31519;45.408;10.962;2022-12-18T00:35:17;101869.75;;;8.70;92.43
45813;BME280;31519;45.408;10.962;2022-12-18T00:37:46;101875.78;;;8.56;93.03
45813;BME280;31519;45.408;10.962;2022-12-18T00:40:14;101873.97;;;8.61;92.37
45813;BME280;31519;45.408;10.962;2022-12-18T00:42:42;101883.00;;;8.65;92.30
45813;BME280;31519;45.408;10.962;2022-12-18T00:45:28;101879.91;;;8.83;91.28
45813;BME280;31519;45.408;10.962;2022-12-18T00:47:57;101879.88;;;8.73;92.56
45813;BME280;31519;45.408;10.962;2022-12-18T00:50:27;101888.09;;;8.77;92.02
45813;BME280;31519;45.408;10.962;2022-12-18T00:52:54;101894.34;;;8.98;90.83
45813;BME280;31519;45.408;10.962;2022-12-18T00:55:24;101904.75;;;9.09;90.71
45813;BME280;31519;45.408;10.962;2022-12-18T00:57:52;101898.28;;;8.90;91.24
45813;BME280;31519;45.408;10.962;2022-12-18T01:00:22;101908.19;;;9.05;90.88
45813;BME280;31519;45.408;10.962;2022-12-18T01:02:50;101908.31;;;8.78;92.56
45813;BME280;31519;45.408;10.962;2022-12-18T01:05:18;101903.91;;;8.94;92.10
45813;BME280;31519;45.408;10.962;2022-12-18T01:07:47;101912.63;;;8.94;91.62
45813;BME280;31519;45.408;10.962;2022-12-18T01:10:15;101914.44;;;8.78;92.42
45813;BME280;31519;45.408;10.962;2022-12-18T01:12:44;101921.34;;;8.79;92.57
45813;BME280;31519;45.408;10.962;2022-12-18T01:15:14;101928.56;;;8.84;92.75
45813;BME280;31519;45.408;10.962;2022-12-18T01:17:43;101922.16;;;8.85;92.56
45813;BME280;31519;45.408;10.962;2022-12-18T01:20:12;101932.31;;;8.93;92.59
45813;BME280;31519;45.408;10.962;2022-12-18T01:22:40;101943.16;;;8.86;94.05
45813;BME280;31519;45.408;10.962;2022-12-18T01:25:09;101947.25;;;9.04;93.17
45813;BME280;31519;45.408;10.962;2022-12-18T01:27:37;101945.38;;;9.00;93.49
45813;BME280;31519;45.408;10.962;2022-12-18T01:30:06;101950.94;;;9.03;93.17
45813;BME280;31519;45.408;10.962;2022-12-18T01:32:34;101953.91;;;9.07;93.31
45813;BME280;31519;45.408;10.962;2022-12-18T01:35:02;101959.81;;;9.19;92.94
45813;BME280;31519;45.408;10.962;2022-12-18T01:37:30;101957.38;;;9.07;93.75
45813;BME280;31519;45.408;10.962;2022-12-18T01:40:00;101964.59;;;9.22;93.44
45813;BME280;31519;45.408;10.962;2022-12-18T01:42:28;101955.84;;;9.26;92.32
45813;BME280;31519;45.408;10.962;2022-12-18T01:47:39;101961.47;;;9.25;92.67
45813;BME280;31519;45.408;10.962;2022-12-18T01:52:55;101964.63;;;9.27;93.55
45813;BME280;31519;45.408;10.962;2022-12-18T01:55:29;101967.09;;;9.39;92.47
45813;BME280;31519;45.408;10.962;2022-12-18T01:57:59;101977.53;;;9.03;94.37
45813;BME280;31519;45.408;10.962;2022-12-18T02:00:29;101970.72;;;9.22;93.82
45813;BME280;31519;45.408;10.962;2022-12-18T02:02:57;101969.59;;;9.08;94.27
45813;BME280;31519;45.408;10.962;2022-12-18T02:05:46;101974.34;;;9.01;94.71
45813;BME280;31519;45.408;10.962;2022-12-18T02:08:30;101987.19;;;9.14;94.43
45813;BME280;31519;45.408;10.962;2022-12-18T02:16:42;101986.19;;;9.25;94.82
45813;BME280;31519;45.408;10.962;2022-12-18T02:19:47;101988.22;;;9.13;95.27
45813;BME280;31519;45.408;10.962;2022-12-18T02:26:01;101991.03;;;9.39;92.21
45813;BME280;31519;45.408;10.962;2022-12-18T02:28:42;101988.94;;;9.51;90.93
45813;BME280;31519;45.408;10.962;2022-12-18T02:31:17;101991.06;;;9.44;90.98
45813;BME280;31519;45.408;10.962;2022-12-18T02:33:55;101992.84;;;9.28;90.76
45813;BME280;31519;45.408;10.962;2022-12-18T02:36:24;101996.78;;;9.20;89.86
45813;BME280;31519;45.408;10.962;2022-12-18T02:38:56;102005.06;;;9.29;89.39
45813;BME280;31519;45.408;10.962;2022-12-18T02:41:26;102010.75;;;9.48;88.76
45813;BME280;31519;45.408;10.962;2022-12-18T02:44:06;102013.09;;;9.39;87.80
45813;BME280;31519;45.408;10.962;2022-12-18T02:46:39;102011.16;;;9.24;87.64
45813;BME280;31519;45.408;10.962;2022-12-18T02:49:18;102015.94;;;9.22;87.47
45813;BME280;31519;45.408;10.962;2022-12-18T02:57:11;102022.28;;;9.16;87.68
45813;BME280;31519;45.408;10.962;2022-12-18T02:59:54;102022.50;;;9.10;86.43
45813;BME280;31519;45.408;10.962;2022-12-18T03:02:29;102024.66;;;9.18;86.96
45813;BME280;31519;45.408;10.962;2022-12-18T03:05:24;102025.28;;;9.35;86.64
45813;BME280;31519;45.408;10.962;2022-12-18T03:08:23;102030.03;;;9.23;85.27
45813;BME280;31519;45.408;10.962;2022-12-18T03:16:01;102028.38;;;9.17;87.52
45813;BME280;31519;45.408;10.962;2022-12-18T03:18:52;102026.41;;;9.44;85.01
45813;BME280;31519;45.408;10.962;2022-12-18T03:21:51;102031.09;;;9.27;83.63
45813;BME280;31519;45.408;10.962;2022-12-18T03:24:25;102024.25;;;8.89;84.91
45813;BME280;31519;45.408;10.962;2022-12-18T03:27:10;102029.84;;;8.93;83.88
45813;BME280;31519;45.408;10.962;2022-12-18T03:30:00;102031.97;;;8.96;82.34
45813;BME280;31519;45.408;10.962;2022-12-18T03:32:58;102028.78;;;8.99;82.67
45813;BME280;31519;45.408;10.962;2022-12-18T03:35:33;102032.06;;;9.06;82.07
45813;BME280;31519;45.408;10.962;2022-12-18T03:38:05;102036.63;;;9.15;82.43
45813;BME280;31519;45.408;10.962;2022-12-18T03:40:53;102042.22;;;9.19;81.74
45813;BME280;31519;45.408;10.962;2022-12-18T03:46:32;102044.47;;;9.37;79.89
45813;BME280;31519;45.408;10.962;2022-12-18T03:49:21;102048.63;;;9.23;80.46
45813;BME280;31519;45.408;10.962;2022-12-18T03:52:03;102055.56;;;9.24;80.34
45813;BME280;31519;45.408;10.962;2022-12-18T03:54:34;102048.00;;;9.06;81.00
45813;BME280;31519;45.408;10.962;2022-12-18T03:57:17;102049.66;;;9.12;80.60
45813;BME280;31519;45.408;10.962;2022-12-18T03:59:55;102056.50;;;9.03;80.52
45813;BME280;31519;45.408;10.962;2022-12-18T04:02:30;102058.34;;;9.02;80.44
45813;BME280;31519;45.408;10.962;2022-12-18T04:05:04;102059.59;;;8.95;81.34
45813;BME280;31519;45.408;10.962;2022-12-18T04:07:37;102069.94;;;8.91;81.08
45813;BME280;31519;45.408;10.962;2022-12-18T04:10:09;102072.66;;;8.96;81.70
45813;BME280;31519;45.408;10.962;2022-12-18T04:12:41;102071.00;;;8.90;81.35
45813;BME280;31519;45.408;10.962;2022-12-18T04:15:12;102071.72;;;9.17;80.19
45813;BME280;31519;45.408;10.962;2022-12-18T04:17:47;102065.22;;;8.98;81.53
45813;BME280;31519;45.408;10.962;2022-12-18T04:20:19;102078.13;;;9.21;79.51
45813;BME280;31519;45.408;10.962;2022-12-18T04:22:48;102078.56;;;9.08;79.56
45813;BME280;31519;45.408;10.962;2022-12-18T04:25:19;102077.41;;;8.94;80.53
45813;BME280;31519;45.408;10.962;2022-12-18T04:27:57;102077.97;;;8.96;81.10
45813;BME280;31519;45.408;10.962;2022-12-18T04:30:27;102090.03;;;9.14;82.01
45813;BME280;31519;45.408;10.962;2022-12-18T04:32:55;102087.59;;;9.02;82.63
45813;BME280;31519;45.408;10.962;2022-12-18T04:35:25;102092.56;;;8.99;82.97
45813;BME280;31519;45.408;10.962;2022-12-18T04:37:53;102098.50;;;8.74;82.34
45813;BME280;31519;45.408;10.962;2022-12-18T04:40:22;102092.69;;;9.14;80.15
45813;BME280;31519;45.408;10.962;2022-12-18T04:42:50;102102.41;;;8.93;80.86
45813;BME280;31519;45.408;10.962;2022-12-18T04:45:18;102100.19;;;8.85;80.59
45813;BME280;31519;45.408;10.962;2022-12-18T04:47:46;102098.88;;;8.87;79.02
45813;BME280;31519;45.408;10.962;2022-12-18T04:50:14;102108.44;;;8.57;79.11
45813;BME280;31519;45.408;10.962;2022-12-18T04:52:45;102114.25;;;8.85;79.00
45813;BME280;31519;45.408;10.962;2022-12-18T04:55:13;102121.38;;;8.80;78.13
45813;BME280;31519;45.408;10.962;2022-12-18T04:57:42;102121.75;;;8.88;78.74
45813;BME280;31519;45.408;10.962;2022-12-18T05:00:10;102131.41;;;9.00;78.85
45813;BME280;31519;45.408;10.962;2022-12-18T05:02:38;102128.25;;;9.03;79.77
45813;BME280;31519;45.408;10.962;2022-12-18T05:05:07;102121.25;;;8.92;79.69
45813;BME280;31519;45.408;10.962;2022-12-18T05:07:35;102124.13;;;9.22;77.34
45813;BME280;31519;45.408;10.962;2022-12-18T05:10:06;102132.63;;;9.19;77.33
45813;BME280;31519;45.408;10.962;2022-12-18T05:12:35;102141.03;;;9.06;79.14
45813;BME280;31519;45.408;10.962;2022-12-18T05:15:27;102144.91;;;8.93;80.99
45813;BME280;31519;45.408;10.962;2022-12-18T05:17:57;102141.06;;;8.79;82.39
45813;BME280;31519;45.408;10.962;2022-12-18T05:20:28;102143.72;;;8.79;82.35
45813;BME280;31519;45.408;10.962;2022-12-18T05:22:56;102143.34;;;8.97;81.71
45813;BME280;31519;45.408;10.962;2022-12-18T05:25:25;102146.06;;;9.02;81.08
45813;BME280;31519;45.408;10.962;2022-12-18T05:27:52;102146.72;;;8.87;79.85
45813;BME280;31519;45.408;10.962;2022-12-18T05:30:21;102152.78;;;8.83;80.07
45813;BME280;31519;45.408;10.962;2022-12-18T05:32:50;102150.19;;;8.88;78.94
45813;BME280;31519;45.408;10.962;2022-12-18T05:35:18;102150.28;;;8.98;76.58
45813;BME280;31519;45.408;10.962;2022-12-18T05:37:46;102157.13;;;8.94;77.29
45813;BME280;31519;45.408;10.962;2022-12-18T05:40:14;102168.56;;;8.95;76.14
45813;BME280;31519;45.408;10.962;2022-12-18T05:42:42;102177.28;;;8.90;75.48
45813;BME280;31519;45.408;10.962;2022-12-18T05:45:11;102183.81;;;8.77;77.46
45813;BME280;31519;45.408;10.962;2022-12-18T05:47:39;102178.69;;;8.71;77.33
45813;BME280;31519;45.408;10.962;2022-12-18T05:50:07;102178.94;;;8.96;76.19
45813;BME280;31519;45.408;10.962;2022-12-18T05:52:35;102188.81;;;9.01;77.49
45813;BME280;31519;45.408;10.962;2022-12-18T05:55:04;102185.59;;;8.72;76.69
45813;BME280;31519;45.408;10.962;2022-12-18T05:57:32;102187.56;;;8.81;77.66
45813;BME280;31519;45.408;10.962;2022-12-18T06:00:01;102183.41;;;8.90;79.86
45813;BME280;31519;45.408;10.962;2022-12-18T06:02:38;102189.25;;;9.19;77.96
45813;BME280;31519;45.408;10.962;2022-12-18T06:05:07;102195.53;;;9.08;78.94
45813;BME280;31519;45.408;10.962;2022-12-18T06:07:35;102213.16;;;8.87;80.38
45813;BME280;31519;45.408;10.962;2022-12-18T06:10:03;102209.78;;;8.70;78.89
45813;BME280;31519;45.408;10.962;2022-12-18T06:12:31;102212.97;;;8.72;75.65
45813;BME280;31519;45.408;10.962;2022-12-18T06:15:01;102216.47;;;8.51;75.56
45813;BME280;31519;45.408;10.962;2022-12-18T06:17:33;102218.06;;;8.52;76.13
45813;BME280;31519;45.408;10.962;2022-12-18T06:20:03;102222.63;;;8.35;77.98
45813;BME280;31519;45.408;10.962;2022-12-18T06:22:32;102230.47;;;8.47;78.08
45813;BME280;31519;45.408;10.962;2022-12-18T06:25:01;102239.41;;;8.62;76.05
45813;BME280;31519;45.408;10.962;2022-12-18T06:27:29;102241.03;;;8.41;79.15
45813;BME280;31519;45.408;10.962;2022-12-18T06:29:57;102244.75;;;8.40;78.04
45813;BME280;31519;45.408;10.962;2022-12-18T06:32:26;102247.31;;;8.57;79.69
45813;BME280;31519;45.408;10.962;2022-12-18T06:34:55;102257.63;;;8.75;81.28
45813;BME280;31519;45.408;10.962;2022-12-18T06:37:23;102254.31;;;8.63;83.90
45813;BME280;31519;45.408;10.962;2022-12-18T06:39:55;102253.13;;;8.32;88.17
45813;BME280;31519;45.408;10.962;2022-12-18T06:42:24;102262.41;;;8.13;89.13
45813;BME280;31519;45.408;10.962;2022-12-18T06:44:53;102260.25;;;8.10;89.90
45813;BME280;31519;45.408;10.962;2022-12-18T06:47:21;102256.06;;;7.97;90.66
45813;BME280;31519;45.408;10.962;2022-12-18T06:49:49;102262.28;;;7.70;91.21
45813;BME280;31519;45.408;10.962;2022-12-18T06:52:17;102265.28;;;8.28;89.73
45813;BME280;31519;45.408;10.962;2022-12-18T06:54:45;102265.69;;;8.37;87.59
45813;BME280;31519;45.408;10.962;2022-12-18T06:57:13;102268.50;;;8.30;88.49
45813;BME280;31519;45.408;10.962;2022-12-18T06:59:42;102266.59;;;8.09;90.10
45813;BME280;31519;45.408;10.962;2022-12-18T07:02:13;102275.34;;;7.93;90.86
45813;BME280;31519;45.408;10.962;2022-12-18T07:04:42;102273.88;;;8.19;90.18
45813;BME280;31519;45.408;10.962;2022-12-18T07:07:10;102278.72;;;7.88;90.72
45813;BME280;31519;45.408;10.962;2022-12-18T07:09:38;102281.53;;;7.98;90.71
45813;BME280;31519;45.408;10.962;2022-12-18T07:12:06;102282.03;;;7.95;90.61
45813;BME280;31519;45.408;10.962;2022-12-18T07:14:35;102289.19;;;7.95;90.38
45813;BME280;31519;45.408;10.962;2022-12-18T07:17:03;102294.41;;;7.90;90.52
45813;BME280;31519;45.408;10.962;2022-12-18T07:19:33;102296.75;;;8.20;90.03
45813;BME280;31519;45.408;10.962;2022-12-18T07:22:01;102310.88;;;8.42;87.61
45813;BME280;31519;45.408;10.962;2022-12-18T07:24:33;102309.94;;;8.70;85.84
45813;BME280;31519;45.408;10.962;2022-12-18T07:27:02;102314.97;;;8.71;84.51
45813;BME280;31519;45.408;10.962;2022-12-18T07:29:31;102316.66;;;8.56;84.80
45813;BME280;31519;45.408;10.962;2022-12-18T07:31:59;102317.75;;;8.05;86.92
45813;BME280;31519;45.408;10.962;2022-12-18T07:34:28;102323.50;;;8.35;85.73
45813;BME280;31519;45.408;10.962;2022-12-18T07:36:56;102331.09;;;8.43;86.12
45813;BME280;31519;45.408;10.962;2022-12-18T07:39:24;102332.91;;;8.26;87.27
45813;BME280;31519;45.408;10.962;2022-12-18T07:41:52;102327.28;;;8.22;87.57
45813;BME280;31519;45.408;10.962;2022-12-18T07:44:40;102334.88;;;7.97;88.10
45813;BME280;31519;45.408;10.962;2022-12-18T07:47:08;102342.25;;;8.28;87.33
45813;BME280;31519;45.408;10.962;2022-12-18T07:49:39;102342.97;;;8.40;86.68
45813;BME280;31519;45.408;10.962;2022-12-18T07:52:07;102351.66;;;8.53;85.88
45813;BME280;31519;45.408;10.962;2022-12-18T07:54:36;102354.50;;;8.68;84.58
45813;BME280;31519;45.408;10.962;2022-12-18T07:57:04;102360.19;;;8.55;84.61
45813;BME280;31519;45.408;10.962;2022-12-18T07:59:52;102365.28;;;8.39;85.39
45813;BME280;31519;45.408;10.962;2022-12-18T08:02:20;102367.91;;;8.56;85.00
45813;BME280;31519;45.408;10.962;2022-12-18T08:04:49;102383.81;;;8.73;84.45
45813;BME280;31519;45.408;10.962;2022-12-18T08:07:16;102385.78;;;8.44;84.90
45813;BME280;31519;45.408;10.962;2022-12-18T08:09:45;102391.75;;;8.51;84.75
45813;BME280;31519;45.408;10.962;2022-12-18T08:12:13;102395.97;;;8.69;84.70
45813;BME280;31519;45.408;10.962;2022-12-18T08:14:41;102400.53;;;8.52;84.24
45813;BME280;31519;45.408;10.962;2022-12-18T08:17:09;102405.94;;;8.62;84.14
45813;BME280;31519;45.408;10.962;2022-12-18T08:19:37;102407.03;;;8.44;83.24
45813;BME280;31519;45.408;10.962;2022-12-18T08:22:05;102413.56;;;8.36;83.62
45813;BME280;31519;45.408;10.962;2022-12-18T08:24:33;102413.38;;;8.60;83.13
45813;BME280;31519;45.408;10.962;2022-12-18T08:27:01;102415.66;;;8.89;82.77
45813;BME280;31519;45.408;10.962;2022-12-18T08:29:49;102421.84;;;8.57;83.59
45813;BME280;31519;45.408;10.962;2022-12-18T08:32:18;102423.44;;;8.74;82.01
45813;BME280;31519;45.408;10.962;2022-12-18T08:34:46;102427.63;;;8.70;83.38
45813;BME280;31519;45.408;10.962;2022-12-18T08:37:14;102424.00;;;8.60;84.80
45813;BME280;31519;45.408;10.962;2022-12-18T08:39:42;102440.34;;;8.68;84.39
45813;BME280;31519;45.408;10.962;2022-12-18T08:42:10;102443.28;;;8.72;83.21
45813;BME280;31519;45.408;10.962;2022-12-18T08:44:57;102448.31;;;8.68;83.77
45813;BME280;31519;45.408;10.962;2022-12-18T08:47:25;102454.97;;;8.71;83.89
45813;BME280;31519;45.408;10.962;2022-12-18T08:49:53;102442.25;;;8.73;84.45
45813;BME280;31519;45.408;10.962;2022-12-18T08:52:21;102452.09;;;8.39;85.76
45813;BME280;31519;45.408;10.962;2022-12-18T08:54:50;102450.41;;;8.50;85.62
45813;BME280;31519;45.408;10.962;2022-12-18T08:57:18;102461.91;;;8.72;84.18
45813;BME280;31519;45.408;10.962;2022-12-18T08:59:47;102460.53;;;8.69;84.51
45813;BME280;31519;45.408;10.962;2022-12-18T09:02:15;102450.94;;;8.85;84.36
45813;BME280;31519;45.408;10.962;2022-12-18T09:04:47;102457.50;;;8.99;82.67
45813;BME280;31519;45.408;10.962;2022-12-18T09:07:23;102465.91;;;8.91;82.94
45813;BME280;31519;45.408;10.962;2022-12-18T09:09:52;102475.44;;;9.25;82.35
45813;BME280;31519;45.408;10.962;2022-12-18T09:12:20;102474.78;;;9.18;80.88
45813;BME280;31519;45.408;10.962;2022-12-18T09:14:49;102470.25;;;8.97;83.39
45813;BME280;31519;45.408;10.962;2022-12-18T09:17:17;102473.09;;;9.12;82.79
45813;BME280;31519;45.408;10.962;2022-12-18T09:19:46;102480.91;;;9.19;82.34
45813;BME280;31519;45.408;10.962;2022-12-18T09:22:14;102474.78;;;9.40;82.14
45813;BME280;31519;45.408;10.962;2022-12-18T09:24:42;102474.56;;;9.03;82.43
45813;BME280;31519;45.408;10.962;2022-12-18T09:27:14;102474.63;;;9.08;82.08
45813;BME280;31519;45.408;10.962;2022-12-18T09:29:42;102478.81;;;9.64;82.19
45813;BME280;31519;45.408;10.962;2022-12-18T09:32:10;102475.75;;;9.77;80.66
45813;BME280;31519;45.408;10.962;2022-12-18T09:34:39;102478.19;;;10.33;78.44
45813;BME280;31519;45.408;10.962;2022-12-18T09:37:08;102477.03;;;10.23;78.88
45813;BME280;31519;45.408;10.962;2022-12-18T09:39:36;102478.94;;;10.28;77.16
45813;BME280;31519;45.408;10.962;2022-12-18T09:42:04;102476.44;;;9.68;78.54
45813;BME280;31519;45.408;10.962;2022-12-18T09:44:44;102468.09;;;10.35;75.59
45813;BME280;31519;45.408;10.962;2022-12-18T09:49:53;102470.38;;;10.21;77.08
45813;BME280;31519;45.408;10.962;2022-12-18T09:57:55;102467.19;;;9.97;74.41
45813;BME280;31519;45.408;10.962;2022-12-18T10:00:25;102466.38;;;9.70;75.65
45813;BME280;31519;45.408;10.962;2022-12-18T10:02:59;102463.91;;;9.90;72.73
45813;BME280;31519;45.408;10.962;2022-12-18T10:22:22;102446.75;;;10.66;69.11
45813;BME280;31519;45.408;10.962;2022-12-18T10:25:19;102452.09;;;9.81;70.52
45813;BME280;31519;45.408;10.962;2022-12-18T10:27:52;102448.41;;;10.41;69.27
45813;BME280;31519;45.408;10.962;2022-12-18T10:30:23;102449.78;;;10.43;68.44
45813;BME280;31519;45.408;10.962;2022-12-18T10:32:52;102453.25;;;10.44;68.86
45813;BME280;31519;45.408;10.962;2022-12-18T10:35:25;102463.66;;;9.92;69.58
45813;BME280;31519;45.408;10.962;2022-12-18T10:38:22;102453.59;;;9.94;69.11
45813;BME280;31519;45.408;10.962;2022-12-18T10:43:27;102462.41;;;10.58;68.71
45813;BME280;31519;45.408;10.962;2022-12-18T10:48:51;102456.75;;;10.49;68.62
45813;BME280;31519;45.408;10.962;2022-12-18T10:51:33;102454.22;;;10.70;67.42
45813;BME280;31519;45.408;10.962;2022-12-18T10:54:03;102464.59;;;10.66;66.58
45813;BME280;31519;45.408;10.962;2022-12-18T10:56:36;102456.34;;;10.68;67.69
45813;BME280;31519;45.408;10.962;2022-12-18T10:59:10;102458.69;;;10.00;68.77
45813;BME280;31519;45.408;10.962;2022-12-18T11:01:49;102454.41;;;9.99;69.45
45813;BME280;31519;45.408;10.962;2022-12-18T11:04:21;102459.72;;;10.53;68.58
45813;BME280;31519;45.408;10.962;2022-12-18T11:07:01;102442.28;;;10.82;67.88
45813;BME280;31519;45.408;10.962;2022-12-18T11:09:33;102437.97;;;10.71;66.89
45813;BME280;31519;45.408;10.962;2022-12-18T11:12:24;102428.25;;;10.55;66.38
45813;BME280;31519;45.408;10.962;2022-12-18T11:14:53;102432.66;;;10.71;67.06
45813;BME280;31519;45.408;10.962;2022-12-18T11:17:35;102424.63;;;11.13;65.72
45813;BME280;31519;45.408;10.962;2022-12-18T11:20:05;102426.50;;;11.28;65.86
45813;BME280;31519;45.408;10.962;2022-12-18T11:22:37;102432.44;;;11.35;64.53
45813;BME280;31519;45.408;10.962;2022-12-18T11:31:19;102427.53;;;12.39;62.83
45813;BME280;31519;45.408;10.962;2022-12-18T11:34:01;102427.22;;;12.51;62.13
45813;BME280;31519;45.408;10.962;2022-12-18T11:36:51;102428.59;;;12.43;62.42
45813;BME280;31519;45.408;10.962;2022-12-18T11:39:34;102420.25;;;12.75;62.62
45813;BME280;31519;45.408;10.962;2022-12-18T11:42:09;102408.38;;;13.17;60.40
45813;BME280;31519;45.408;10.962;2022-12-18T11:49:49;102413.78;;;14.29;57.29
45813;BME280;31519;45.408;10.962;2022-12-18T11:52:23;102412.09;;;13.70;57.34
45813;BME280;31519;45.408;10.962;2022-12-18T11:54:55;102404.75;;;15.01;55.75
45813;BME280;31519;45.408;10.962;2022-12-18T11:57:30;102407.84;;;15.08;54.84
45813;BME280;31519;45.408;10.962;2022-12-18T12:00:11;102404.47;;;14.79;55.03
45813;BME280;31519;45.408;10.962;2022-12-18T12:08:51;102408.25;;;14.20;57.69
45813;BME280;31519;45.408;10.962;2022-12-18T12:11:57;102409.28;;;15.43;55.10
45813;BME280;31519;45.408;10.962;2022-12-18T12:17:47;102409.59;;;14.51;57.01
45813;BME280;31519;45.408;10.962;2022-12-18T12:26:07;102398.16;;;15.12;55.29
45813;BME280;31519;45.408;10.962;2022-12-18T12:31:38;102395.25;;;15.27;51.90
45813;BME280;31519;45.408;10.962;2022-12-18T12:34:29;102397.97;;;15.03;51.76
45813;BME280;31519;45.408;10.962;2022-12-18T12:37:18;102396.03;;;15.09;50.65
45813;BME280;31519;45.408;10.962;2022-12-18T12:39:47;102398.03;;;15.97;47.98
45813;BME280;31519;45.408;10.962;2022-12-18T12:45:24;102389.16;;;14.79;49.23
45813;BME280;31519;45.408;10.962;2022-12-18T12:47:55;102382.91;;;16.47;45.76
45813;BME280;31519;45.408;10.962;2022-12-18T12:50:25;102386.41;;;16.48;44.89
45813;BME280;31519;45.408;10.962;2022-12-18T12:52:55;102387.97;;;16.35;45.09
45813;BME280;31519;45.408;10.962;2022-12-18T12:55:27;102388.03;;;16.76;44.32
45813;BME280;31519;45.408;10.962;2022-12-18T12:58:28;102397.53;;;17.37;43.37
45813;BME280;31519;45.408;10.962;2022-12-18T13:07:01;102385.09;;;17.63;42.21
45813;BME280;31519;45.408;10.962;2022-12-18T13:09:33;102384.25;;;18.29;41.38
45813;BME280;31519;45.408;10.962;2022-12-18T13:12:22;102384.69;;;18.93;40.41
45813;BME280;31519;45.408;10.962;2022-12-18T13:15:21;102366.41;;;18.42;40.77
45813;BME280;31519;45.408;10.962;2022-12-18T13:21:15;102371.34;;;17.87;41.04
45813;BME280;31519;45.408;10.962;2022-12-18T13:23:34;102371.00;;;17.66;40.99
45813;BME280;31519;45.408;10.962;2022-12-18T13:29:06;102361.75;;;18.03;41.25
45813;BME280;31519;45.408;10.962;2022-12-18T13:34:16;102361.50;;;19.00;39.57
45813;BME280;31519;45.408;10.962;2022-12-18T13:36:57;102368.47;;;18.45;38.97
45813;BME280;31519;45.408;10.962;2022-12-18T13:39:44;102363.38;;;17.46;40.45
45813;BME280;31519;45.408;10.962;2022-12-18T13:45:00;102362.81;;;16.99;40.83
45813;BME280;31519;45.408;10.962;2022-12-18T13:47:33;102373.44;;;18.99;37.86
45813;BME280;31519;45.408;10.962;2022-12-18T13:50:12;102364.06;;;19.14;37.11
45813;BME280;31519;45.408;10.962;2022-12-18T13:52:50;102371.84;;;20.02;35.10
45813;BME280;31519;45.408;10.962;2022-12-18T13:55:20;102366.84;;;20.67;34.33
45813;BME280;31519;45.408;10.962;2022-12-18T13:58:03;102368.44;;;20.98;33.29
45813;BME280;31519;45.408;10.962;2022-12-18T14:00:32;102366.66;;;21.22;33.28
45813;BME280;31519;45.408;10.962;2022-12-18T14:03:00;102371.44;;;21.46;32.92
45813;BME280;31519;45.408;10.962;2022-12-18T14:05:36;102369.06;;;21.78;32.29
45813;BME280;31519;45.408;10.962;2022-12-18T14:08:10;102367.44;;;20.44;34.67
45813;BME280;31519;45.408;10.962;2022-12-18T14:10:44;102362.03;;;21.23;32.92
45813;BME280;31519;45.408;10.962;2022-12-18T14:13:26;102356.00;;;20.29;34.23
45813;BME280;31519;45.408;10.962;2022-12-18T14:15:57;102366.03;;;20.29;34.49
45813;BME280;31519;45.408;10.962;2022-12-18T14:21:27;102370.66;;;18.74;37.42
45813;BME280;31519;45.408;10.962;2022-12-18T14:24:15;102359.31;;;19.80;35.78
45813;BME280;31519;45.408;10.962;2022-12-18T14:26:48;102360.28;;;19.15;37.19
45813;BME280;31519;45.408;10.962;2022-12-18T14:29:28;102365.81;;;18.23;39.16
45813;BME280;31519;45.408;10.962;2022-12-18T14:32:16;102364.09;;;17.38;40.66
45813;BME280;31519;45.408;10.962;2022-12-18T14:34:50;102362.19;;;16.48;42.84
45813;BME280;31519;45.408;10.962;2022-12-18T14:37:24;102363.22;;;17.28;41.75
45813;BME280;31519;45.408;10.962;2022-12-18T14:42:22;102364.84;;;17.16;42.77
45813;BME280;31519;45.408;10.962;2022-12-18T14:44:50;102362.00;;;16.99;42.35
45813;BME280;31519;45.408;10.962;2022-12-18T14:47:38;102370.59;;;16.14;44.11
45813;BME280;31519;45.408;10.962;2022-12-18T14:50:13;102373.81;;;16.29;44.25
45813;BME280;31519;45.408;10.962;2022-12-18T14:52:41;102377.09;;;15.62;45.62
45813;BME280;31519;45.408;10.962;2022-12-18T14:55:19;102377.41;;;15.36;46.34
45813;BME280;31519;45.408;10.962;2022-12-18T14:57:51;102382.25;;;14.97;46.86
45813;BME280;31519;45.408;10.962;2022-12-18T15:00:23;102383.00;;;14.79;48.34
45813;BME280;31519;45.408;10.962;2022-12-18T15:02:56;102383.91;;;14.69;48.19
45813;BME280;31519;45.408;10.962;2022-12-18T15:05:29;102390.69;;;14.33;49.62
45813;BME280;31519;45.408;10.962;2022-12-18T15:08:00;102390.75;;;14.28;50.13
45813;BME280;31519;45.408;10.962;2022-12-18T15:10:32;102396.00;;;14.09;50.67